Time;durP1;ratioP1;P1;durP2;ratioP2;P2;SDS_P1;SDS_P2;PMS_P1;PMS_P2;Temp;Humidity;BMP_temperature;BMP_pressure;BME280_temperature;BME280_humidity;BME280_pressure;Samples;Min_cycle;Max_cycle;Signal;HPM_P1;HPM_P2
2021/04/07 00:00:21;;;;;;;7.47;2.35;;;;;;;;;;5098094;28;20142;-84
2021/04/07 00:02:47;;;;;;;9.18;2.85;;;;;;;;;;5098447;28;20027;-85
2021/04/07 00:05:15;;;;;;;11.18;3.33;;;;;;;;;;5098256;28;20024;-86
2021/04/07 00:07:44;;;;;;;14.88;4.30;;;;;;;;;;5098300;28;20460;-86
2021/04/07 00:10:12;;;;;;;8.93;3.08;;;;;;;;;;5098550;28;20027;-87
2021/04/07 00:12:38;;;;;;;6.22;2.38;;;;;;;;;;5098283;28;20031;-86
2021/04/07 00:15:15;;;;;;;4.55;1.90;;;;;;;;;;5097877;28;20027;-85
2021/04/07 00:17:41;;;;;;;7.93;1.52;;;;;;;;;;5099061;28;20030;-86
2021/04/07 00:20:09;;;;;;;3.20;1.30;;;;;;;;;;5101550;28;20023;-84
2021/04/07 00:22:35;;;;;;;3.53;1.80;;;;;;;;;;5104084;28;20020;-86
2021/04/07 00:25:01;;;;;;;4.72;1.77;;;;;;;;;;5097607;28;20392;-86
2021/04/07 00:27:28;;;;;;;3.10;1.75;;;;;;;;;;5097999;28;20049;-85
2021/04/07 00:29:54;;;;;;;2.72;1.52;;;;;;;;;;5097811;28;20031;-85
2021/04/07 00:32:21;;;;;;;4.03;1.42;;;;;;;;;;5097644;28;20030;-85
2021/04/07 00:34:47;;;;;;;3.28;1.60;;;;;;;;;;5097907;28;20046;-87
2021/04/07 00:37:13;;;;;;;4.10;1.73;;;;;;;;;;5097512;28;20027;-83
2021/04/07 00:39:40;;;;;;;4.07;1.70;;;;;;;;;;5097268;28;20067;-85
2021/04/07 00:42:06;;;;;;;4.95;1.98;;;;;;;;;;5097352;28;20046;-86
2021/04/07 00:44:33;;;;;;;3.53;1.50;;;;;;;;;;5097626;28;20077;-85
2021/04/07 00:46:59;;;;;;;5.35;2.50;;;;;;;;;;5097561;28;20491;-84
2021/04/07 00:49:26;;;;;;;9.25;3.95;;;;;;;;;;5098322;28;20423;-86
2021/04/07 00:51:52;;;;;;;13.52;4.47;;;;;;;;;;5097031;28;20031;-86
2021/04/07 00:54:19;;;;;;;2.92;1.65;;;;;;;;;;5097446;28;20027;-86
2021/04/07 00:56:45;;;;;;;6.55;1.60;;;;;;;;;;5097259;28;20369;-87
2021/04/07 00:59:15;;;;;;;18.75;7.38;;;;;;;;;;5086264;28;20047;-86
2021/04/07 01:01:42;;;;;;;19.25;6.57;;;;;;;;;;5077235;28;20031;-86
2021/04/07 01:04:09;;;;;;;10.32;3.72;;;;;;;;;;5076903;28;20173;-86
2021/04/07 01:06:35;;;;;;;11.40;3.75;;;;;;;;;;5076381;28;20043;-86
2021/04/07 01:09:02;;;;;;;11.02;4.00;;;;;;;;;;5076668;28;20091;-85
2021/04/07 01:11:28;;;;;;;19.38;5.78;;;;;;;;;;5094618;28;20032;-86
2021/04/07 01:13:55;;;;;;;19.52;3.75;;;;;;;;;;5077067;28;20491;-87
2021/04/07 01:16:21;;;;;;;4.55;2.15;;;;;;;;;;5076220;28;20024;-85
2021/04/07 01:18:48;;;;;;;7.03;2.28;;;;;;;;;;5076498;28;20408;-87
2021/04/07 01:21:14;;;;;;;6.85;2.65;;;;;;;;;;5094596;28;20031;-85
2021/04/07 01:23:47;;;;;;;4.95;1.95;;;;;;;;;;5095144;28;20028;-86
2021/04/07 01:26:14;;;;;;;6.22;2.45;;;;;;;;;;5076480;28;20392;-85
2021/04/07 01:28:40;;;;;;;3.13;1.60;;;;;;;;;;5076507;28;20035;-87
2021/04/07 01:31:06;;;;;;;7.93;2.22;;;;;;;;;;5076548;28;20028;-86
2021/04/07 01:33:33;;;;;;;4.63;2.45;;;;;;;;;;5076222;28;20051;-86
2021/04/07 01:35:59;;;;;;;5.43;2.50;;;;;;;;;;5076512;28;20032;-85
2021/04/07 01:38:26;;;;;;;3.88;2.13;;;;;;;;;;5094585;28;20107;-85
2021/04/07 01:40:53;;;;;;;5.97;2.60;;;;;;;;;;5076295;28;20035;-85
2021/04/07 01:43:19;;;;;;;6.20;2.80;;;;;;;;;;5076159;28;20166;-86
2021/04/07 01:45:46;;;;;;;5.30;2.53;;;;;;;;;;5076031;28;20036;-85
2021/04/07 01:48:17;;;;;;;6.97;2.20;;;;;;;;;;5075983;28;20085;-87
2021/04/07 01:50:45;;;;;;;3.83;2.28;;;;;;;;;;5076139;28;20028;-87
2021/04/07 01:53:11;;;;;;;6.57;2.03;;;;;;;;;;5075826;28;20031;-87
2021/04/07 01:55:38;;;;;;;6.60;2.38;;;;;;;;;;5076309;28;20119;-85
2021/04/07 01:58:04;;;;;;;5.65;2.55;;;;;;;;;;5094909;28;20028;-86
2021/04/07 02:00:30;;;;;;;6.22;3.13;;;;;;;;;;5096460;28;20039;-85
2021/04/07 02:02:57;;;;;;;4.85;1.73;;;;;;;;;;5114699;28;20452;-85
2021/04/07 02:05:23;;;;;;;8.32;3.17;;;;;;;;;;5095087;28;20114;-85
2021/04/07 02:07:49;;;;;;;6.57;2.47;;;;;;;;;;5096061;28;20031;-85
2021/04/07 02:10:19;;;;;;;11.75;3.17;;;;;;;;;;5096618;28;20023;-87
2021/04/07 02:12:45;;;;;;;12.63;4.43;;;;;;;;;;5097256;28;20118;-87
2021/04/07 02:15:12;;;;;;;9.25;3.10;;;;;;;;;;5096548;28;20027;-86
2021/04/07 02:17:39;;;;;;;11.45;2.78;;;;;;;;;;5096321;28;20420;-88
2021/04/07 02:20:06;;;;;;;14.30;3.60;;;;;;;;;;5096590;28;20118;-85
2021/04/07 02:22:32;;;;;;;9.75;2.42;;;;;;;;;;5115281;28;20041;-85
2021/04/07 02:24:58;;;;;;;7.60;4.03;;;;;;;;;;5096168;28;20461;-86
2021/04/07 02:27:25;;;;;;;6.53;3.83;;;;;;;;;;5096558;28;20118;-86
2021/04/07 02:29:52;;;;;;;9.38;3.50;;;;;;;;;;5096654;28;20081;-87
2021/04/07 02:32:18;;;;;;;17.23;4.55;;;;;;;;;;5095707;28;20034;-87
2021/04/07 02:34:45;;;;;;;10.70;3.17;;;;;;;;;;5097160;28;20034;-87
2021/04/07 02:37:11;;;;;;;12.07;4.15;;;;;;;;;;5096282;28;20034;-87
2021/04/07 02:39:38;;;;;;;12.55;4.80;;;;;;;;;;5095903;28;20035;-87
2021/04/07 02:42:04;;;;;;;16.20;5.30;;;;;;;;;;5114525;28;20027;-85
2021/04/07 02:44:30;;;;;;;11.45;4.28;;;;;;;;;;5095782;28;20028;-86
2021/04/07 02:46:56;;;;;;;11.88;3.72;;;;;;;;;;5096413;28;20027;-85
2021/04/07 02:49:22;;;;;;;10.52;2.90;;;;;;;;;;5095898;28;20028;-87
2021/04/07 02:51:50;;;;;;;6.85;1.88;;;;;;;;;;5095621;28;20035;-85
2021/04/07 02:54:17;;;;;;;4.00;1.67;;;;;;;;;;5095782;28;20044;-85
2021/04/07 02:56:43;;;;;;;4.82;1.40;;;;;;;;;;5096170;28;20027;-85
2021/04/07 02:59:09;;;;;;;7.75;1.67;;;;;;;;;;5084961;28;20105;-86
2021/04/07 03:01:35;;;;;;;3.85;1.58;;;;;;;;;;5076154;28;20461;-84
2021/04/07 03:04:01;;;;;;;2.50;1.33;;;;;;;;;;5076143;28;20024;-87
2021/04/07 03:06:27;;;;;;;6.63;1.60;;;;;;;;;;5093156;28;20036;-84
2021/04/07 03:08:53;;;;;;;2.25;1.13;;;;;;;;;;5075573;28;20453;-86
2021/04/07 03:11:19;;;;;;;2.05;1.00;;;;;;;;;;5075436;28;20504;-85
2021/04/07 03:13:46;;;;;;;2.50;1.38;;;;;;;;;;5075888;28;20039;-85
2021/04/07 03:16:12;;;;;;;4.15;1.13;;;;;;;;;;5078427;28;20024;-86
2021/04/07 03:18:38;;;;;;;3.78;1.15;;;;;;;;;;5079494;28;20043;-86
2021/04/07 03:21:05;;;;;;;2.47;1.00;;;;;;;;;;5079069;28;20054;-84
2021/04/07 03:23:31;;;;;;;6.50;1.45;;;;;;;;;;5078827;28;20119;-85
2021/04/07 03:25:57;;;;;;;5.95;1.33;;;;;;;;;;5079109;28;20040;-85
2021/04/07 03:28:24;;;;;;;4.32;1.85;;;;;;;;;;5078761;28;20024;-85
2021/04/07 03:30:51;;;;;;;3.60;1.38;;;;;;;;;;5078508;28;20024;-86
2021/04/07 03:33:18;;;;;;;7.28;2.15;;;;;;;;;;5078610;28;20107;-84
2021/04/07 03:35:45;;;;;;;6.28;2.03;;;;;;;;;;5078348;28;20032;-86
2021/04/07 03:38:11;;;;;;;4.18;1.83;;;;;;;;;;5078339;28;20027;-84
2021/04/07 03:40:38;;;;;;;6.25;2.08;;;;;;;;;;5078284;28;20077;-84
2021/04/07 03:43:05;;;;;;;16.73;3.03;;;;;;;;;;5096254;28;20024;-85
2021/04/07 03:45:32;;;;;;;10.38;3.03;;;;;;;;;;5080206;28;20400;-85
2021/04/07 03:47:58;;;;;;;8.55;2.78;;;;;;;;;;5092767;28;20049;-84
2021/04/07 03:50:25;;;;;;;2.72;1.55;;;;;;;;;;5092136;28;20473;-85
2021/04/07 03:52:52;;;;;;;3.28;1.75;;;;;;;;;;5099187;28;20036;-85
2021/04/07 03:55:18;;;;;;;6.15;2.53;;;;;;;;;;5096669;28;20181;-85
2021/04/07 03:57:44;;;;;;;7.95;3.47;;;;;;;;;;5096239;28;20488;-85
2021/04/07 04:00:11;;;;;;;7.30;2.72;;;;;;;;;;5077737;28;20449;-85
2021/04/07 04:02:37;;;;;;;6.55;2.75;;;;;;;;;;5077851;28;20090;-84
2021/04/07 04:05:05;;;;;;;6.00;1.55;;;;;;;;;;5095750;28;20058;-84
2021/04/07 04:07:31;;;;;;;3.22;1.77;;;;;;;;;;5096529;28;20028;-86
2021/04/07 04:09:57;;;;;;;5.55;1.80;;;;;;;;;;5078809;28;20028;-84
2021/04/07 04:12:23;;;;;;;12.50;3.65;;;;;;;;;;5077962;28;20031;-84
2021/04/07 04:14:49;;;;;;;15.77;3.20;;;;;;;;;;5077667;28;20362;-85
2021/04/07 04:17:16;;;;;;;7.72;1.60;;;;;;;;;;5077485;28;20115;-85
2021/04/07 04:19:42;;;;;;;3.13;1.33;;;;;;;;;;5077386;28;20035;-84
2021/04/07 04:22:08;;;;;;;4.28;1.60;;;;;;;;;;5078078;28;20028;-86
2021/04/07 04:24:34;;;;;;;5.22;1.60;;;;;;;;;;5078426;28;20111;-85
2021/04/07 04:27:01;;;;;;;2.75;1.35;;;;;;;;;;5095588;28;20028;-85
2021/04/07 04:29:27;;;;;;;2.80;1.50;;;;;;;;;;5077611;28;20031;-85
2021/04/07 04:31:53;;;;;;;2.75;1.10;;;;;;;;;;5077969;28;20388;-86
2021/04/07 04:34:19;;;;;;;4.13;2.00;;;;;;;;;;5077412;28;20078;-85
2021/04/07 04:36:45;;;;;;;5.00;2.10;;;;;;;;;;5077603;28;20032;-86
2021/04/07 04:39:11;;;;;;;4.38;1.33;;;;;;;;;;5078001;28;20020;-86
2021/04/07 04:41:37;;;;;;;2.92;1.50;;;;;;;;;;5077860;28;20161;-86
2021/04/07 04:44:04;;;;;;;4.93;1.50;;;;;;;;;;5078775;28;20377;-86
2021/04/07 04:46:30;;;;;;;5.75;1.42;;;;;;;;;;5077313;28;20063;-86
2021/04/07 04:48:56;;;;;;;5.90;1.60;;;;;;;;;;5077550;28;20465;-85
2021/04/07 04:51:22;;;;;;;6.05;1.80;;;;;;;;;;5077250;28;20059;-88
2021/04/07 04:53:48;;;;;;;5.50;1.63;;;;;;;;;;5078069;28;20035;-86
2021/04/07 04:56:14;;;;;;;5.57;1.30;;;;;;;;;;5077917;28;20066;-84
2021/04/07 04:58:41;;;;;;;3.78;1.48;;;;;;;;;;5098585;28;20052;-84
2021/04/07 05:01:07;;;;;;;3.90;2.03;;;;;;;;;;5097105;28;20023;-84
2021/04/07 05:03:33;;;;;;;3.95;1.55;;;;;;;;;;5103005;28;20094;-86
2021/04/07 05:05:59;;;;;;;3.97;1.27;;;;;;;;;;5113791;28;20482;-85
2021/04/07 05:08:26;;;;;;;5.10;1.52;;;;;;;;;;5113774;28;20020;-85
2021/04/07 05:10:52;;;;;;;4.75;1.70;;;;;;;;;;5113930;28;20073;-85
2021/04/07 05:13:18;;;;;;;3.30;1.52;;;;;;;;;;5113913;28;20031;-85
2021/04/07 05:15:45;;;;;;;5.53;1.40;;;;;;;;;;5107886;28;20052;-84
2021/04/07 05:18:15;;;;;;;3.03;1.65;;;;;;;;;;5096873;28;20501;-84
2021/04/07 05:20:42;;;;;;;2.97;1.15;;;;;;;;;;5096546;28;20038;-85
2021/04/07 05:23:08;;;;;;;4.07;1.50;;;;;;;;;;5096270;28;20541;-85
2021/04/07 05:25:35;;;;;;;6.22;2.80;;;;;;;;;;5096208;28;20028;-84
2021/04/07 05:28:02;;;;;;;3.80;2.00;;;;;;;;;;5096364;28;20038;-85
2021/04/07 05:30:58;;;;;;;2.75;1.42;;;;;;;;;;5096401;28;20184;-86
2021/04/07 05:33:15;;;;;;;5.25;1.73;;;;;;;;;;5114245;28;20024;-85
2021/04/07 05:35:41;;;;;;;4.40;1.85;;;;;;;;;;5096526;28;20384;-87
2021/04/07 05:38:07;;;;;;;3.45;1.63;;;;;;;;;;5095939;28;20028;-83
2021/04/07 05:40:33;;;;;;;2.90;1.40;;;;;;;;;;5095673;28;20019;-84
2021/04/07 05:43:01;;;;;;;3.25;1.58;;;;;;;;;;5096381;28;20356;-85
2021/04/07 05:45:27;;;;;;;3.33;1.30;;;;;;;;;;5114485;28;20027;-85
2021/04/07 05:47:53;;;;;;;4.60;1.60;;;;;;;;;;5096172;28;20024;-86
2021/04/07 05:50:20;;;;;;;3.08;1.60;;;;;;;;;;5096345;28;20030;-86
2021/04/07 05:52:49;;;;;;;4.05;1.80;;;;;;;;;;5106057;28;20019;-85
2021/04/07 05:55:16;;;;;;;3.65;1.50;;;;;;;;;;5113029;28;20030;-85
2021/04/07 05:57:42;;;;;;;3.53;1.45;;;;;;;;;;5113071;28;20028;-85
2021/04/07 06:00:08;;;;;;;2.25;1.05;;;;;;;;;;5132459;27;20504;-85
2021/04/07 06:02:35;;;;;;;3.35;1.40;;;;;;;;;;5116078;28;20515;-86
2021/04/07 06:05:01;;;;;;;4.63;1.77;;;;;;;;;;5115690;27;20027;-87
2021/04/07 06:07:27;;;;;;;3.90;1.80;;;;;;;;;;5116028;27;20047;-85
2021/04/07 06:09:53;;;;;;;4.72;1.85;;;;;;;;;;5116426;27;20031;-85
2021/04/07 06:12:19;;;;;;;2.90;1.35;;;;;;;;;;5116084;27;20495;-84
2021/04/07 06:14:45;;;;;;;5.85;2.00;;;;;;;;;;5116028;27;20054;-84
2021/04/07 06:17:11;;;;;;;5.95;1.75;;;;;;;;;;5115993;28;20497;-84
2021/04/07 06:19:37;;;;;;;3.85;1.90;;;;;;;;;;5116044;28;20167;-84
2021/04/07 06:22:03;;;;;;;4.65;1.83;;;;;;;;;;5115641;28;20035;-85
2021/04/07 06:24:29;;;;;;;6.65;1.77;;;;;;;;;;5115992;28;20027;-84
2021/04/07 06:26:56;;;;;;;3.38;1.63;;;;;;;;;;5116090;28;20130;-83
2021/04/07 06:29:22;;;;;;;4.20;1.60;;;;;;;;;;5115582;28;20032;-85
2021/04/07 06:31:48;;;;;;;3.03;1.63;;;;;;;;;;5116043;28;20027;-84
2021/04/07 06:34:14;;;;;;;4.95;1.80;;;;;;;;;;5115559;28;20019;-84
2021/04/07 06:36:40;;;;;;;6.43;2.13;;;;;;;;;;5115389;28;20019;-84
2021/04/07 06:39:06;;;;;;;4.93;1.83;;;;;;;;;;5115504;28;20371;-84
2021/04/07 06:41:32;;;;;;;4.60;1.70;;;;;;;;;;5115592;28;20030;-85
2021/04/07 06:43:59;;;;;;;5.50;1.70;;;;;;;;;;5115781;28;20110;-84
2021/04/07 06:46:25;;;;;;;3.55;1.75;;;;;;;;;;5115501;28;20471;-84
2021/04/07 06:48:53;;;;;;;4.63;1.90;;;;;;;;;;5115886;28;20531;-84
2021/04/07 06:51:21;;;;;;;5.13;1.83;;;;;;;;;;5117047;27;20118;-84
2021/04/07 06:53:51;;;;;;;5.70;2.05;;;;;;;;;;5099381;28;20476;-84
2021/04/07 06:56:18;;;;;;;3.95;1.77;;;;;;;;;;5099386;28;20024;-84
2021/04/07 06:58:45;;;;;;;3.40;1.42;;;;;;;;;;5098607;28;20051;-85
2021/04/07 07:01:11;;;;;;;2.50;1.23;;;;;;;;;;5099155;28;20028;-85
2021/04/07 07:03:37;;;;;;;2.78;1.48;;;;;;;;;;5098815;28;20031;-86
2021/04/07 07:06:03;;;;;;;3.53;1.80;;;;;;;;;;5099036;28;20112;-84
2021/04/07 07:08:31;;;;;;;3.63;1.50;;;;;;;;;;5117400;28;20020;-85
2021/04/07 07:11:08;;;;;;;3.78;2.00;;;;;;;;;;5098975;28;20483;-85
2021/04/07 07:13:35;;;;;;;4.18;1.88;;;;;;;;;;5099147;28;20023;-84
2021/04/07 07:16:01;;;;;;;5.00;2.05;;;;;;;;;;5098785;28;20023;-85
2021/04/07 07:18:28;;;;;;;4.85;2.15;;;;;;;;;;5098370;28;20106;-84
2021/04/07 07:20:54;;;;;;;3.20;1.45;;;;;;;;;;5098347;28;20034;-85
2021/04/07 07:23:24;;;;;;;3.00;1.42;;;;;;;;;;5098579;28;20390;-87
2021/04/07 07:25:55;;;;;;;3.03;1.50;;;;;;;;;;5098832;28;20035;-88
2021/04/07 07:28:21;;;;;;;3.70;1.45;;;;;;;;;;5098256;28;20028;-84
2021/04/07 07:30:47;;;;;;;3.53;1.38;;;;;;;;;;5116575;28;20055;-85
2021/04/07 07:33:14;;;;;;;3.00;1.17;;;;;;;;;;5098271;28;20028;-85
2021/04/07 07:35:40;;;;;;;4.07;1.40;;;;;;;;;;5098240;28;20376;-84
2021/04/07 07:38:06;;;;;;;2.90;1.65;;;;;;;;;;5098600;28;20023;-87
2021/04/07 07:40:33;;;;;;;2.95;1.45;;;;;;;;;;5098752;28;20053;-85
2021/04/07 07:42:59;;;;;;;2.35;1.50;;;;;;;;;;5098462;28;20376;-85
2021/04/07 07:45:27;;;;;;;2.95;1.42;;;;;;;;;;5098199;28;20036;-85
2021/04/07 07:48:17;;;;;;;3.28;1.50;;;;;;;;;;5098407;28;20020;-86
2021/04/07 07:50:44;;;;;;;3.35;1.45;;;;;;;;;;5098080;28;20028;-85
2021/04/07 07:53:11;;;;;;;3.03;1.30;;;;;;;;;;5114940;27;20160;-85
2021/04/07 07:55:40;;;;;;;2.55;1.30;;;;;;;;;;5118370;27;20038;-85
2021/04/07 07:58:07;;;;;;;4.22;1.30;;;;;;;;;;5116626;27;20033;-86
2021/04/07 08:00:33;;;;;;;3.58;1.33;;;;;;;;;;5098185;28;20418;-86
2021/04/07 08:03:07;;;;;;;2.75;1.10;;;;;;;;;;5097170;28;20028;-86
2021/04/07 08:05:33;;;;;;;2.10;1.20;;;;;;;;;;5098500;28;20063;-85
2021/04/07 08:07:59;;;;;;;3.63;1.40;;;;;;;;;;5098387;28;20019;-85
2021/04/07 08:10:25;;;;;;;2.75;1.25;;;;;;;;;;5098094;28;20028;-84
2021/04/07 08:12:52;;;;;;;3.83;1.40;;;;;;;;;;5098903;28;20138;-85
2021/04/07 08:15:18;;;;;;;2.88;1.25;;;;;;;;;;5097780;28;20020;-86
2021/04/07 08:17:44;;;;;;;2.72;1.30;;;;;;;;;;5097880;28;20032;-84
2021/04/07 08:20:10;;;;;;;3.00;1.30;;;;;;;;;;5097749;28;20456;-86
2021/04/07 08:22:36;;;;;;;2.58;1.23;;;;;;;;;;5097591;28;20031;-85
2021/04/07 08:25:06;;;;;;;3.17;1.45;;;;;;;;;;5097699;28;20605;-85
2021/04/07 08:27:33;;;;;;;3.15;1.35;;;;;;;;;;5097902;28;20059;-83
2021/04/07 08:29:59;;;;;;;3.70;1.40;;;;;;;;;;5098401;28;20032;-87
2021/04/07 08:32:25;;;;;;;3.80;1.20;;;;;;;;;;5097646;28;20028;-83
2021/04/07 08:34:52;;;;;;;3.47;1.42;;;;;;;;;;5101955;28;20031;-85
2021/04/07 08:37:28;;;;;;;5.25;1.60;;;;;;;;;;5113219;28;20062;-85
2021/04/07 08:39:55;;;;;;;2.45;1.42;;;;;;;;;;5101673;28;20024;-84
2021/04/07 08:42:22;;;;;;;4.40;1.70;;;;;;;;;;5098892;28;20051;-84
2021/04/07 08:44:49;;;;;;;3.20;1.60;;;;;;;;;;5097293;28;20039;-84
2021/04/07 08:47:43;;;;;;;4.18;1.88;;;;;;;;;;5097060;28;20059;-84
2021/04/07 08:50:10;;;;;;;2.95;1.50;;;;;;;;;;5097010;28;20531;-86
2021/04/07 08:52:49;;;;;;;6.63;1.55;;;;;;;;;;5085577;28;20032;-85
2021/04/07 08:55:20;;;;;;;2.80;1.23;;;;;;;;;;5078324;28;20032;-84
2021/04/07 08:58:06;;;;;;;3.47;2.00;;;;;;;;;;5076805;28;20020;-85
2021/04/07 09:00:36;;;;;;;4.75;1.70;;;;;;;;;;5093699;28;20037;-84
2021/04/07 09:03:10;;;;;;;4.22;1.75;;;;;;;;;;5093619;28;20028;-84
2021/04/07 09:05:37;;;;;;;4.18;1.95;;;;;;;;;;5094820;28;20031;-83
2021/04/07 09:08:03;;;;;;;4.20;2.20;;;;;;;;;;5094496;28;20032;-82
2021/04/07 09:10:41;;;;;;;4.30;1.80;;;;;;;;;;5078317;28;20495;-87
2021/04/07 09:13:11;;;;;;;3.83;2.00;;;;;;;;;;5085351;28;20012;-86
2021/04/07 09:15:51;;;;;;;2.83;1.42;;;;;;;;;;5081131;28;20119;-85
2021/04/07 09:18:18;;;;;;;4.57;1.70;;;;;;;;;;5101681;28;20540;-89
2021/04/07 09:20:46;;;;;;;2.92;1.27;;;;;;;;;;5077740;28;20031;-85
2021/04/07 09:23:12;;;;;;;3.20;1.70;;;;;;;;;;5079739;28;20393;-93
2021/04/07 09:25:44;;;;;;;2.63;1.10;;;;;;;;;;5079093;28;20047;-91
2021/04/07 09:28:11;;;;;;;2.63;1.33;;;;;;;;;;5096943;28;20106;-91
2021/04/07 09:30:47;;;;;;;7.20;1.83;;;;;;;;;;5080646;28;20154;-91
2021/04/07 09:33:19;;;;;;;3.17;1.42;;;;;;;;;;5095868;28;20054;-91
2021/04/07 09:35:52;;;;;;;3.53;1.52;;;;;;;;;;5096383;28;20430;-92
2021/04/07 09:38:19;;;;;;;2.70;1.38;;;;;;;;;;5096587;28;20030;-93
2021/04/07 09:40:45;;;;;;;8.88;1.60;;;;;;;;;;5081887;28;20545;-91
2021/04/07 09:43:11;;;;;;;5.55;1.55;;;;;;;;;;5097379;28;20461;-93
2021/04/07 09:45:37;;;;;;;4.50;1.50;;;;;;;;;;5105765;28;20040;-94
2021/04/07 09:48:15;;;;;;;2.55;1.20;;;;;;;;;;5105778;28;20012;-92
2021/04/07 09:50:42;;;;;;;9.27;1.85;;;;;;;;;;5088732;28;20029;-91
2021/04/07 09:53:08;;;;;;;3.15;1.00;;;;;;;;;;5083856;28;20028;-88
2021/04/07 09:55:34;;;;;;;3.53;1.45;;;;;;;;;;5096915;28;20078;-89
2021/04/07 09:58:02;;;;;;;6.65;1.10;;;;;;;;;;5097607;28;20039;-88
2021/04/07 10:00:36;;;;;;;2.65;1.17;;;;;;;;;;5102336;28;20579;-90
2021/04/07 10:03:15;;;;;;;2.65;1.10;;;;;;;;;;5100294;28;20074;-90
2021/04/07 10:05:41;;;;;;;3.50;1.23;;;;;;;;;;5102373;28;20042;-89
2021/04/07 10:08:20;;;;;;;3.30;1.48;;;;;;;;;;5103439;28;20030;-89
2021/04/07 10:10:47;;;;;;;2.67;0.90;;;;;;;;;;5105821;28;20038;-89
2021/04/07 10:13:17;;;;;;;4.68;1.23;;;;;;;;;;5124735;28;20540;-89
2021/04/07 10:15:43;;;;;;;3.33;1.10;;;;;;;;;;5102923;28;20498;-89
2021/04/07 10:18:11;;;;;;;2.13;1.00;;;;;;;;;;5101558;28;20077;-89
2021/04/07 10:20:38;;;;;;;1.67;0.88;;;;;;;;;;5114487;28;20054;-89
2021/04/07 10:23:16;;;;;;;2.38;1.10;;;;;;;;;;5103176;28;20051;-90
2021/04/07 10:25:46;;;;;;;3.67;1.30;;;;;;;;;;5102426;28;20078;-90
2021/04/07 10:28:25;;;;;;;4.57;1.20;;;;;;;;;;5104490;28;20024;-90
2021/04/07 10:30:56;;;;;;;3.17;1.10;;;;;;;;;;5104556;28;20031;-90
2021/04/07 10:33:25;;;;;;;2.08;0.93;;;;;;;;;;5105840;28;20024;-90
2021/04/07 10:35:58;;;;;;;3.20;0.98;;;;;;;;;;5117899;28;20091;-91
2021/04/07 10:38:28;;;;;;;2.20;0.80;;;;;;;;;;5107741;28;20019;-89
2021/04/07 10:41:15;;;;;;;1.88;0.73;;;;;;;;;;5105233;28;20024;-89
2021/04/07 10:43:43;;;;;;;1.90;0.85;;;;;;;;;;5103110;28;20106;-87
2021/04/07 10:46:09;;;;;;;2.25;1.00;;;;;;;;;;5104263;28;20035;-90
2021/04/07 10:48:36;;;;;;;4.22;1.17;;;;;;;;;;5103317;28;20208;-89
2021/04/07 10:51:03;;;;;;;1.98;0.98;;;;;;;;;;5122229;28;20031;-90
2021/04/07 10:53:30;;;;;;;5.28;1.60;;;;;;;;;;5120513;28;20023;-88
2021/04/07 10:55:57;;;;;;;3.25;1.38;;;;;;;;;;5120198;28;20036;-89
2021/04/07 10:58:30;;;;;;;3.25;1.23;;;;;;;;;;5120659;28;20109;-89
2021/04/07 11:00:56;;;;;;;1.85;0.90;;;;;;;;;;5102748;28;20028;-89
2021/04/07 11:03:30;;;;;;;2.53;1.00;;;;;;;;;;5102485;28;20022;-88
2021/04/07 11:05:56;;;;;;;3.50;1.30;;;;;;;;;;5102329;28;20039;-89
2021/04/07 11:08:26;;;;;;;2.15;1.10;;;;;;;;;;5102901;28;20035;-87
2021/04/07 11:10:52;;;;;;;4.18;1.40;;;;;;;;;;5111108;28;20040;-87
2021/04/07 11:13:20;;;;;;;3.83;1.65;;;;;;;;;;5073413;28;20024;-87
2021/04/07 11:15:46;;;;;;;5.18;2.00;;;;;;;;;;5089520;28;20062;-87
2021/04/07 11:18:14;;;;;;;5.45;2.00;;;;;;;;;;5086876;28;20032;-90
2021/04/07 11:20:43;;;;;;;3.47;1.65;;;;;;;;;;5077605;28;20023;-88
2021/04/07 11:23:10;;;;;;;2.78;1.17;;;;;;;;;;5080901;28;20019;-89
2021/04/07 11:25:36;;;;;;;2.33;1.10;;;;;;;;;;5088448;28;20033;-88
2021/04/07 11:28:02;;;;;;;3.55;1.10;;;;;;;;;;5092910;28;20024;-88
2021/04/07 11:30:31;;;;;;;2.45;1.13;;;;;;;;;;5074146;28;20429;-89
2021/04/07 11:33:01;;;;;;;3.03;1.05;;;;;;;;;;5075831;28;20032;-88
2021/04/07 11:35:44;;;;;;;2.33;1.00;;;;;;;;;;5075425;28;20023;-88
2021/04/07 11:38:13;;;;;;;2.50;1.02;;;;;;;;;;5075865;28;20059;-88
2021/04/07 11:41:45;;;;;;;2.53;1.10;;;;;;;;;;5075638;28;20029;-89
2021/04/07 11:43:28;;;;;;;3.10;0.80;;;;;;;;;;5076701;28;20111;-89
2021/04/07 11:45:54;;;;;;;1.90;0.70;;;;;;;;;;5075459;28;20050;-89
2021/04/07 11:48:21;;;;;;;1.92;0.88;;;;;;;;;;5075214;28;20124;-91
2021/04/07 11:50:47;;;;;;;2.38;0.85;;;;;;;;;;5076650;28;20029;-90
2021/04/07 11:53:13;;;;;;;2.85;1.05;;;;;;;;;;5076387;28;20028;-90
2021/04/07 11:55:41;;;;;;;2.30;1.00;;;;;;;;;;5076193;28;20034;-89
2021/04/07 11:58:07;;;;;;;3.72;1.00;;;;;;;;;;5077497;28;20024;-89
2021/04/07 12:00:33;;;;;;;2.10;0.88;;;;;;;;;;5079655;28;20070;-88
2021/04/07 12:02:59;;;;;;;2.20;1.10;;;;;;;;;;5079511;28;20028;-90
2021/04/07 12:05:30;;;;;;;2.53;1.00;;;;;;;;;;5080062;28;20033;-88
2021/04/07 12:07:56;;;;;;;7.40;1.05;;;;;;;;;;5080596;28;20024;-88
2021/04/07 12:10:23;;;;;;;2.25;0.85;;;;;;;;;;5080317;28;20051;-88
2021/04/07 12:12:50;;;;;;;2.85;0.90;;;;;;;;;;5079020;28;20028;-89
2021/04/07 12:15:16;;;;;;;3.20;0.85;;;;;;;;;;5080111;28;20440;-90
2021/04/07 12:17:43;;;;;;;2.20;0.88;;;;;;;;;;5078677;28;20024;-90
2021/04/07 12:20:10;;;;;;;1.92;1.00;;;;;;;;;;5078667;28;20032;-89
2021/04/07 12:22:38;;;;;;;1.77;1.00;;;;;;;;;;5079211;28;20472;-90
2021/04/07 12:25:04;;;;;;;3.35;1.10;;;;;;;;;;5092894;28;20028;-89
2021/04/07 12:27:31;;;;;;;2.50;1.00;;;;;;;;;;5097509;28;20035;-91
2021/04/07 12:29:57;;;;;;;2.28;1.00;;;;;;;;;;5095658;28;20020;-87
2021/04/07 12:32:23;;;;;;;1.85;1.00;;;;;;;;;;5104124;28;20038;-89
2021/04/07 12:34:49;;;;;;;4.35;1.60;;;;;;;;;;5098711;28;20031;-88
2021/04/07 12:37:15;;;;;;;5.55;1.10;;;;;;;;;;5098312;28;20148;-88
2021/04/07 12:39:41;;;;;;;2.90;1.00;;;;;;;;;;5098493;28;20023;-89
2021/04/07 12:42:16;;;;;;;2.17;0.90;;;;;;;;;;5098633;28;20020;-89
2021/04/07 12:44:42;;;;;;;3.00;1.20;;;;;;;;;;5098400;28;20047;-90
2021/04/07 12:47:08;;;;;;;2.35;0.98;;;;;;;;;;5098351;28;20047;-89
2021/04/07 12:49:34;;;;;;;2.17;1.00;;;;;;;;;;5098201;28;20361;-89
2021/04/07 12:52:01;;;;;;;1.40;0.70;;;;;;;;;;5100577;28;20039;-88
2021/04/07 12:57:11;;;;;;;4.82;1.13;;;;;;;;;;5119848;28;20383;-89
2021/04/07 12:59:37;;;;;;;2.55;1.02;;;;;;;;;;5084743;28;20552;-90
2021/04/07 13:02:04;;;;;;;2.53;0.80;;;;;;;;;;5078120;28;20111;-90
2021/04/07 13:04:30;;;;;;;4.40;1.08;;;;;;;;;;5077912;28;20066;-90
2021/04/07 13:06:56;;;;;;;2.33;0.98;;;;;;;;;;5077670;28;20032;-91
2021/04/07 13:09:22;;;;;;;2.00;0.82;;;;;;;;;;5077582;28;20028;-90
2021/04/07 13:11:48;;;;;;;3.53;1.13;;;;;;;;;;5078052;28;20598;-89
2021/04/07 13:14:15;;;;;;;1.10;0.60;;;;;;;;;;5077865;28;20058;-90
2021/04/07 13:16:41;;;;;;;1.95;0.88;;;;;;;;;;5061178;28;20028;-90
2021/04/07 13:19:09;;;;;;;1.55;0.82;;;;;;;;;;5077607;28;20128;-90
2021/04/07 13:21:37;;;;;;;3.75;1.58;;;;;;;;;;5077486;28;20035;-90
2021/04/07 13:24:03;;;;;;;1.83;0.90;;;;;;;;;;5081370;28;20024;-88
2021/04/07 13:26:29;;;;;;;1.15;0.65;;;;;;;;;;5078378;28;20047;-87
2021/04/07 13:28:57;;;;;;;2.28;1.05;;;;;;;;;;5077242;28;20024;-89
2021/04/07 13:31:23;;;;;;;3.83;1.40;;;;;;;;;;5077869;28;20035;-90
2021/04/07 13:33:55;;;;;;;2.88;0.90;;;;;;;;;;5078095;28;20030;-91
2021/04/07 13:36:26;;;;;;;2.40;1.15;;;;;;;;;;5078399;28;20038;-91
2021/04/07 13:43:48;;;;;;;6.53;1.95;;;;;;;;;;5096841;28;20046;-89
2021/04/07 13:46:15;;;;;;;16.90;6.50;;;;;;;;;;5078654;28;20063;-90
2021/04/07 13:48:41;;;;;;;4.18;1.40;;;;;;;;;;5080175;28;20028;-91
2021/04/07 13:51:08;;;;;;;4.38;0.90;;;;;;;;;;5080586;28;20024;-88
2021/04/07 13:53:35;;;;;;;3.17;1.42;;;;;;;;;;5077561;28;20020;-88
2021/04/07 13:56:03;;;;;;;2.90;1.00;;;;;;;;;;5077669;28;20024;-90
2021/04/07 13:58:30;;;;;;;2.72;1.20;;;;;;;;;;5081080;28;20058;-90
2021/04/07 14:00:56;;;;;;;2.50;0.80;;;;;;;;;;5096297;28;20114;-88
2021/04/07 14:03:22;;;;;;;4.07;0.90;;;;;;;;;;5098334;28;20062;-90
2021/04/07 14:05:48;;;;;;;3.80;0.90;;;;;;;;;;5098062;28;20035;-91
2021/04/07 14:08:17;;;;;;;2.17;1.00;;;;;;;;;;5098643;28;20111;-91
2021/04/07 14:10:45;;;;;;;2.53;0.82;;;;;;;;;;5098206;28;20023;-91
2021/04/07 14:13:12;;;;;;;1.17;0.60;;;;;;;;;;5098402;28;20032;-91
2021/04/07 14:15:38;;;;;;;5.65;1.08;;;;;;;;;;5098647;28;20028;-91
2021/04/07 14:18:06;;;;;;;2.65;1.10;;;;;;;;;;5097992;28;20024;-91
2021/04/07 14:20:32;;;;;;;2.20;0.85;;;;;;;;;;5104896;28;20034;-91
2021/04/07 14:22:59;;;;;;;5.13;1.10;;;;;;;;;;5117673;28;20027;-91
2021/04/07 14:25:27;;;;;;;10.98;1.50;;;;;;;;;;5106520;28;20040;-91
2021/04/07 14:27:56;;;;;;;6.82;1.65;;;;;;;;;;5098056;28;20031;-90
2021/04/07 14:30:23;;;;;;;2.65;1.42;;;;;;;;;;5097356;28;20031;-91
2021/04/07 14:32:50;;;;;;;2.67;1.05;;;;;;;;;;5097724;28;20038;-90
2021/04/07 14:35:16;;;;;;;2.45;1.10;;;;;;;;;;5097015;28;20118;-90
2021/04/07 14:37:42;;;;;;;2.08;0.90;;;;;;;;;;5097423;28;20059;-87
2021/04/07 14:40:08;;;;;;;1.55;0.70;;;;;;;;;;5096756;28;20035;-88
2021/04/07 14:42:35;;;;;;;3.78;1.20;;;;;;;;;;5097556;28;20463;-90
2021/04/07 14:45:01;;;;;;;5.45;1.63;;;;;;;;;;5096372;28;20030;-90
2021/04/07 14:47:28;;;;;;;1.88;1.15;;;;;;;;;;5096899;28;20035;-90
2021/04/07 14:49:57;;;;;;;3.50;1.98;;;;;;;;;;5097262;28;20051;-90
2021/04/07 14:52:23;;;;;;;4.05;1.30;;;;;;;;;;5096628;28;20389;-90